createdAt,value
2023-01-25T00:01:56.273Z,3.05
2023-01-25T00:04:24.395Z,3.06
2023-01-25T00:06:52.088Z,3.04
2023-01-25T00:09:20.059Z,3.00
2023-01-25T00:11:48.128Z,2.99
2023-01-25T00:14:16.614Z,3.04
2023-01-25T00:16:44.317Z,3.04
2023-01-25T00:19:13.384Z,3.01
2023-01-25T00:21:41.061Z,3.00
2023-01-25T00:24:10.161Z,3.08
2023-01-25T00:26:37.806Z,3.07
2023-01-25T00:29:05.483Z,2.98
2023-01-25T00:31:39.359Z,3.06
2023-01-25T00:34:11.597Z,3.06
2023-01-25T00:36:45.491Z,3.09
2023-01-25T00:39:14.001Z,3.10
2023-01-25T00:41:41.745Z,3.11
2023-01-25T00:44:09.375Z,3.12
2023-01-25T00:46:37.131Z,3.10
2023-01-25T00:49:04.642Z,3.12
2023-01-25T00:51:32.139Z,3.05
2023-01-25T00:54:01.054Z,3.04
2023-01-25T00:56:28.851Z,3.02
2023-01-25T00:58:56.414Z,3.02
2023-01-25T01:01:23.988Z,2.95
2023-01-25T01:03:53.093Z,3.01
2023-01-25T01:06:20.817Z,3.04
2023-01-25T01:08:48.529Z,3.02
2023-01-25T01:11:17.393Z,2.89
2023-01-25T01:13:44.950Z,2.89
2023-01-25T01:16:13.510Z,2.88
2023-01-25T01:18:43.228Z,2.92
2023-01-25T01:21:11.737Z,2.89
2023-01-25T01:23:39.632Z,2.85
2023-01-25T01:26:09.392Z,2.87
2023-01-25T01:28:39.313Z,2.83
2023-01-25T01:31:09.088Z,2.85
2023-01-25T01:33:36.826Z,2.88
2023-01-25T01:36:08.197Z,2.90
2023-01-25T01:38:35.731Z,2.91
2023-01-25T01:41:03.607Z,2.82
2023-01-25T01:43:31.966Z,2.93
2023-01-25T01:46:02.537Z,2.91
2023-01-25T01:48:34.405Z,2.92
2023-01-25T01:51:04.538Z,2.88
2023-01-25T01:53:33.732Z,2.82
2023-01-25T01:56:03.695Z,2.83
2023-01-25T01:58:32.162Z,2.94
2023-01-25T02:01:01.669Z,2.95
2023-01-25T02:03:29.957Z,2.95
2023-01-25T02:06:02.364Z,2.83
2023-01-25T02:08:31.689Z,2.76
2023-01-25T02:10:59.850Z,2.78
2023-01-25T02:13:28.019Z,2.76
2023-01-25T02:15:56.406Z,2.80
2023-01-25T02:18:25.817Z,2.84
2023-01-25T02:20:54.475Z,2.80
2023-01-25T02:23:26.771Z,2.80
2023-01-25T02:25:56.163Z,2.80
2023-01-25T02:28:26.356Z,2.83
2023-01-25T02:30:54.118Z,2.84
2023-01-25T02:33:24.334Z,2.77
2023-01-25T02:35:56.150Z,2.77
2023-01-25T02:38:23.682Z,2.78
2023-01-25T02:40:55.192Z,2.72
2023-01-25T02:43:23.926Z,2.54
2023-01-25T02:45:55.754Z,2.61
2023-01-25T02:48:23.274Z,2.68
2023-01-25T02:50:50.765Z,2.69
2023-01-25T02:53:18.258Z,2.71
2023-01-25T02:55:45.769Z,2.66
2023-01-25T02:58:14.602Z,2.68
2023-01-25T03:00:42.185Z,2.74
2023-01-25T03:03:09.708Z,2.69
2023-01-25T03:05:37.226Z,2.73
2023-01-25T03:08:05.021Z,2.73
2023-01-25T03:10:32.493Z,2.62
2023-01-25T03:12:59.963Z,2.63
2023-01-25T03:15:29.285Z,2.67
2023-01-25T03:17:56.935Z,2.61
2023-01-25T03:20:24.422Z,2.61
2023-01-25T03:22:51.921Z,2.57
2023-01-25T03:25:19.389Z,2.68
2023-01-25T03:27:46.897Z,2.65
2023-01-25T03:30:14.525Z,2.57
2023-01-25T03:32:43.407Z,2.57
2023-01-25T03:35:10.939Z,2.60
2023-01-25T03:37:38.473Z,2.60
2023-01-25T03:40:07.297Z,2.53
2023-01-25T03:42:34.911Z,2.56
2023-01-25T03:45:02.432Z,2.49
2023-01-25T03:47:29.949Z,2.49
2023-01-25T03:49:58.773Z,2.48
2023-01-25T03:52:27.327Z,2.53
2023-01-25T03:54:54.789Z,2.53
2023-01-25T03:57:22.270Z,2.48
2023-01-25T03:59:49.781Z,2.52
2023-01-25T04:02:17.341Z,2.48
2023-01-25T04:04:44.840Z,2.48
2023-01-25T04:07:13.668Z,2.54
2023-01-25T04:09:41.110Z,2.56
2023-01-25T04:12:08.722Z,2.51
2023-01-25T04:14:44.243Z,2.53
2023-01-25T04:17:12.900Z,2.47
2023-01-25T04:19:40.565Z,2.47
2023-01-25T04:22:08.909Z,2.42
2023-01-25T04:24:37.800Z,2.42
2023-01-25T04:27:05.454Z,2.41
2023-01-25T04:29:41.184Z,2.37
2023-01-25T04:32:09.512Z,2.39
2023-01-25T04:34:37.111Z,2.38
2023-01-25T04:37:04.666Z,2.41
2023-01-25T04:39:32.211Z,2.44
2023-01-25T04:42:01.048Z,2.40
2023-01-25T04:44:28.617Z,2.37
2023-01-25T04:46:56.131Z,2.52
2023-01-25T04:49:23.622Z,2.51
2023-01-25T04:51:51.155Z,2.48
2023-01-25T04:54:18.665Z,2.46
2023-01-25T04:56:46.184Z,2.51
2023-01-25T04:59:15.060Z,2.52
2023-01-25T05:01:42.595Z,2.55
2023-01-25T05:04:10.117Z,2.54
2023-01-25T05:06:37.674Z,2.51
2023-01-25T05:09:05.234Z,2.48
2023-01-25T05:11:32.766Z,2.46
2023-01-25T05:14:00.310Z,2.50
2023-01-25T05:16:29.219Z,2.47
2023-01-25T05:18:57.013Z,2.51
2023-01-25T05:21:44.619Z,2.51
2023-01-25T05:24:12.569Z,2.50
2023-01-25T05:26:57.930Z,2.53
2023-01-25T05:29:25.452Z,2.32
2023-01-25T05:31:54.672Z,2.49
2023-01-25T05:34:22.261Z,2.46
2023-01-25T05:36:49.929Z,2.54
2023-01-25T05:39:17.424Z,2.56
2023-01-25T05:41:45.018Z,2.62
2023-01-25T05:44:12.703Z,2.64
2023-01-25T05:46:40.241Z,2.67
2023-01-25T05:49:09.272Z,2.63
2023-01-25T05:51:38.326Z,2.66
2023-01-25T05:54:06.448Z,2.63
2023-01-25T05:56:33.940Z,2.61
2023-01-25T05:59:02.399Z,2.46
2023-01-25T06:01:29.982Z,2.51
2023-01-25T06:03:57.850Z,2.48
2023-01-25T06:06:26.792Z,2.41
2023-01-25T06:08:54.347Z,2.32
2023-01-25T06:11:23.895Z,2.34
2023-01-25T06:13:51.910Z,2.28
2023-01-25T06:16:20.395Z,2.32
2023-01-25T06:18:47.921Z,2.27
2023-01-25T06:21:15.482Z,2.25
2023-01-25T06:23:45.382Z,2.24
2023-01-25T06:26:14.618Z,2.28
2023-01-25T06:28:42.633Z,2.28
2023-01-25T06:31:11.570Z,2.25
2023-01-25T06:33:39.514Z,2.31
2023-01-25T06:36:09.122Z,2.45
2023-01-25T06:38:36.612Z,2.43
2023-01-25T06:41:07.649Z,2.43
2023-01-25T06:43:36.007Z,2.38
2023-01-25T06:46:05.281Z,2.27
2023-01-25T06:48:33.341Z,2.43
2023-01-25T06:51:02.327Z,2.46
2023-01-25T06:53:31.434Z,2.50
2023-01-25T06:56:00.228Z,2.42
2023-01-25T06:58:30.185Z,2.38
2023-01-25T07:01:01.398Z,2.32
2023-01-25T07:03:28.980Z,2.35
2023-01-25T07:06:00.184Z,2.31
2023-01-25T07:08:27.931Z,2.22
2023-01-25T07:10:56.460Z,2.28
2023-01-25T07:13:24.244Z,2.28
2023-01-25T07:15:57.560Z,2.21
2023-01-25T07:18:25.437Z,2.17
2023-01-25T07:20:53.300Z,2.17
2023-01-25T07:23:21.259Z,2.20
2023-01-25T07:25:50.838Z,2.21
2023-01-25T07:28:18.591Z,2.16
2023-01-25T07:30:47.038Z,2.09
2023-01-25T07:33:15.913Z,2.10
2023-01-25T07:35:43.533Z,2.09
2023-01-25T07:38:12.417Z,2.09
2023-01-25T07:40:40.783Z,2.03
2023-01-25T07:43:08.257Z,2.06
2023-01-25T07:45:35.797Z,2.08
2023-01-25T07:48:09.888Z,2.05
2023-01-25T07:50:39.454Z,2.07
2023-01-25T07:53:06.906Z,2.03
2023-01-25T07:55:34.612Z,1.99
2023-01-25T07:58:02.112Z,1.94
2023-01-25T08:00:29.745Z,1.98
2023-01-25T08:02:57.194Z,2.00
2023-01-25T08:05:25.380Z,1.99
2023-01-25T08:07:54.169Z,2.01
2023-01-25T08:10:21.793Z,2.07
2023-01-25T08:12:49.243Z,2.11
2023-01-25T08:15:16.705Z,2.08
2023-01-25T08:17:44.137Z,1.96
2023-01-25T08:20:13.941Z,2.08
2023-01-25T08:22:41.425Z,2.12
2023-01-25T08:25:11.106Z,2.14
2023-01-25T08:27:38.744Z,2.16
2023-01-25T08:30:07.179Z,2.07
2023-01-25T08:32:37.325Z,2.19
2023-01-25T08:35:06.939Z,2.23
2023-01-25T08:37:34.820Z,2.24
2023-01-25T08:40:02.401Z,2.29
2023-01-25T08:42:31.205Z,2.28
2023-01-25T08:44:58.737Z,2.27
2023-01-25T08:47:26.691Z,2.26
2023-01-25T08:49:55.275Z,2.25
2023-01-25T08:52:23.070Z,2.33
2023-01-25T08:54:50.642Z,2.30
2023-01-25T08:57:18.275Z,2.32
2023-01-25T08:59:47.706Z,2.30
2023-01-25T09:02:15.222Z,2.27
2023-01-25T09:04:42.715Z,2.31
2023-01-25T09:07:10.212Z,2.44
2023-01-25T09:09:37.697Z,2.42
2023-01-25T09:12:05.979Z,2.46
2023-01-25T09:14:33.511Z,2.41
2023-01-25T09:17:02.346Z,2.42
2023-01-25T09:19:29.852Z,2.43
2023-01-25T09:21:57.366Z,2.38
2023-01-25T09:24:24.876Z,2.28
2023-01-25T09:26:59.365Z,2.28
2023-01-25T09:29:27.775Z,2.26
2023-01-25T09:31:55.346Z,2.17
2023-01-25T09:34:24.241Z,2.17
2023-01-25T09:36:51.736Z,2.22
2023-01-25T09:39:20.658Z,2.24
2023-01-25T09:42:15.008Z,2.26
2023-01-25T09:44:54.853Z,2.19
2023-01-25T09:47:27.160Z,2.20
2023-01-25T09:50:20.060Z,2.29
2023-01-25T09:53:07.751Z,2.29
2023-01-25T09:55:35.383Z,2.33
2023-01-25T09:58:04.284Z,2.28
2023-01-25T10:00:35.433Z,2.33
2023-01-25T10:03:04.990Z,2.33
2023-01-25T10:05:37.849Z,2.24
2023-01-25T10:08:08.479Z,2.14
2023-01-25T10:10:39.239Z,2.13
2023-01-25T10:13:10.846Z,2.23
2023-01-25T10:15:41.382Z,2.28
2023-01-25T10:18:19.160Z,2.27
2023-01-25T10:20:53.123Z,2.26
2023-01-25T10:23:32.108Z,2.31
2023-01-25T10:26:00.586Z,2.36
2023-01-25T10:28:35.279Z,2.37
2023-01-25T10:31:06.053Z,2.39
2023-01-25T10:33:38.012Z,2.39
2023-01-25T10:36:08.323Z,2.40
2023-01-25T10:38:38.691Z,2.12
2023-01-25T10:41:09.010Z,2.40
2023-01-25T10:43:36.459Z,2.46
2023-01-25T10:46:04.141Z,2.42
2023-01-25T10:48:35.394Z,2.33
2023-01-25T10:51:02.928Z,2.30
2023-01-25T10:53:34.195Z,2.24
2023-01-25T10:56:23.057Z,2.40
2023-01-25T10:58:52.062Z,2.41
2023-01-25T11:01:27.367Z,2.48
2023-01-25T11:03:54.908Z,2.49
2023-01-25T11:06:34.039Z,2.42
2023-01-25T11:09:03.558Z,2.45
2023-01-25T11:11:40.518Z,2.58
2023-01-25T11:14:16.997Z,2.46
2023-01-25T11:16:47.254Z,2.57
2023-01-25T11:19:27.724Z,2.65
2023-01-25T11:21:57.728Z,2.65
2023-01-25T11:24:29.480Z,2.50
2023-01-25T11:27:14.353Z,2.55
2023-01-25T11:29:41.865Z,2.38
2023-01-25T11:32:20.313Z,2.50
2023-01-25T11:34:48.308Z,2.46
2023-01-25T11:37:26.405Z,2.43
2023-01-25T11:40:02.327Z,2.38
2023-01-25T11:42:35.334Z,2.43
2023-01-25T11:45:17.683Z,2.57
2023-01-25T11:47:55.765Z,2.59
2023-01-25T11:50:29.263Z,2.55
2023-01-25T11:53:04.472Z,2.49
2023-01-25T11:55:40.918Z,2.44
2023-01-25T11:58:19.176Z,2.41
2023-01-25T12:00:55.793Z,2.42
2023-01-25T12:03:37.869Z,2.46
2023-01-25T12:06:11.602Z,2.43
2023-01-25T12:08:48.475Z,2.46
2023-01-25T12:11:29.358Z,2.45
2023-01-25T12:14:02.543Z,2.35
2023-01-25T12:16:44.057Z,2.28
2023-01-25T12:19:25.001Z,2.25
2023-01-25T12:22:14.342Z,2.19
2023-01-25T12:24:46.106Z,2.18
2023-01-25T12:27:26.132Z,2.13
2023-01-25T12:29:57.749Z,2.05
2023-01-25T12:32:28.065Z,2.00
2023-01-25T12:35:04.499Z,1.93
2023-01-25T12:37:35.406Z,1.86
2023-01-25T12:40:06.264Z,1.97
2023-01-25T12:42:37.739Z,2.06
2023-01-25T12:45:11.220Z,2.08
2023-01-25T12:47:41.747Z,2.11
2023-01-25T12:50:15.685Z,2.05
2023-01-25T12:52:47.220Z,1.82
2023-01-25T12:55:17.121Z,1.91
2023-01-25T12:57:53.291Z,2.08
2023-01-25T13:00:24.099Z,2.05
2023-01-25T13:03:00.581Z,2.07
2023-01-25T13:05:30.760Z,2.07
2023-01-25T13:08:06.667Z,1.95
2023-01-25T13:10:36.954Z,1.98
2023-01-25T13:13:21.411Z,1.92
2023-01-25T13:15:49.577Z,1.92
2023-01-25T13:18:36.527Z,1.98
2023-01-25T13:21:06.379Z,1.90
2023-01-25T13:23:35.375Z,1.88
2023-01-25T13:26:44.425Z,1.87
2023-01-25T13:29:51.739Z,1.90
2023-01-25T13:33:04.521Z,1.95
2023-01-25T13:35:41.754Z,1.90
2023-01-25T13:38:32.194Z,1.87
2023-01-25T13:41:12.926Z,1.85
2023-01-25T13:43:45.436Z,1.84
2023-01-25T13:46:16.404Z,1.85
2023-01-25T13:48:53.715Z,1.81
2023-01-25T13:51:24.073Z,1.82
2023-01-25T13:53:59.001Z,1.86
2023-01-25T13:56:29.331Z,1.84
2023-01-25T13:58:56.963Z,1.85
2023-01-25T14:01:24.517Z,1.95
2023-01-25T14:03:54.967Z,2.07
2023-01-25T14:06:26.299Z,1.97
2023-01-25T14:08:56.415Z,1.95
2023-01-25T14:11:25.645Z,1.96
2023-01-25T14:13:57.923Z,2.00
2023-01-25T14:16:27.392Z,1.95
2023-01-25T14:18:55.053Z,1.94
2023-01-25T14:21:24.233Z,1.87
2023-01-25T14:23:52.794Z,1.93
2023-01-25T14:26:23.095Z,2.01
2023-01-25T14:29:01.237Z,2.00
2023-01-25T14:31:32.749Z,1.97
2023-01-25T14:34:02.446Z,1.80
2023-01-25T14:36:33.125Z,1.98
2023-01-25T14:39:03.184Z,2.00
2023-01-25T14:41:33.785Z,1.94
2023-01-25T14:44:03.843Z,2.11
2023-01-25T14:46:33.110Z,2.11
2023-01-25T14:49:25.175Z,2.07
2023-01-25T14:51:58.747Z,2.07
2023-01-25T14:54:27.745Z,2.06
2023-01-25T14:56:57.426Z,2.06
2023-01-25T14:59:28.640Z,2.05
2023-01-25T15:01:57.814Z,2.14
2023-01-25T15:04:25.567Z,2.14
2023-01-25T15:06:57.404Z,2.04
2023-01-25T15:09:38.171Z,1.95
2023-01-25T15:12:23.008Z,1.90
2023-01-25T15:14:52.022Z,1.77
2023-01-25T15:17:42.954Z,1.99
2023-01-25T15:20:35.431Z,2.05
2023-01-25T15:23:29.720Z,1.96
2023-01-25T15:25:58.736Z,1.99
2023-01-25T15:28:27.785Z,1.91
2023-01-25T15:30:57.529Z,1.89
2023-01-25T15:33:26.836Z,1.78
2023-01-25T15:35:54.828Z,1.73
2023-01-25T15:38:24.957Z,1.70
2023-01-25T15:40:52.571Z,1.74
2023-01-25T15:43:20.812Z,1.70
2023-01-25T15:45:50.033Z,1.64
2023-01-25T15:48:19.646Z,1.76
2023-01-25T15:50:47.214Z,1.84
2023-01-25T15:53:16.086Z,1.83
2023-01-25T15:55:46.249Z,1.88
2023-01-25T15:58:17.572Z,1.98
2023-01-25T16:00:45.077Z,1.88
2023-01-25T16:03:12.958Z,1.97
2023-01-25T16:05:40.480Z,1.90
2023-01-25T16:08:08.279Z,2.01
2023-01-25T16:10:35.764Z,1.98
2023-01-25T16:13:04.648Z,1.77
2023-01-25T16:15:32.146Z,1.70
2023-01-25T16:17:59.884Z,1.68
2023-01-25T16:20:27.414Z,1.87
2023-01-25T16:22:54.912Z,1.91
2023-01-25T16:25:22.425Z,1.86
2023-01-25T16:27:50.462Z,1.97
2023-01-25T16:30:23.952Z,2.07
2023-01-25T16:32:52.622Z,2.05
2023-01-25T16:35:20.687Z,2.13
2023-01-25T16:37:48.412Z,2.19
2023-01-25T16:40:24.579Z,2.12
2023-01-25T16:42:52.355Z,2.05
2023-01-25T16:45:21.256Z,2.06
2023-01-25T16:47:49.933Z,2.01
2023-01-25T16:50:18.783Z,2.01
2023-01-25T16:52:49.039Z,1.90
2023-01-25T16:55:17.374Z,1.74
2023-01-25T16:57:45.840Z,1.74
2023-01-25T17:00:14.814Z,1.84
2023-01-25T17:02:58.221Z,1.83
2023-01-25T17:05:32.847Z,1.77
2023-01-25T17:08:00.567Z,1.75
2023-01-25T17:10:28.913Z,1.88
2023-01-25T17:12:56.627Z,1.93
2023-01-25T17:15:24.178Z,1.91
2023-01-25T17:17:53.177Z,1.96
2023-01-25T17:20:20.897Z,2.00
2023-01-25T17:22:51.134Z,1.75
2023-01-25T17:25:19.079Z,1.80
2023-01-25T17:27:46.965Z,1.79
2023-01-25T17:30:15.533Z,1.87
2023-01-25T17:32:43.333Z,1.92
2023-01-25T17:35:12.326Z,1.95
2023-01-25T17:37:41.175Z,1.77
2023-01-25T17:40:11.291Z,1.74
2023-01-25T17:42:39.222Z,1.79
2023-01-25T17:45:08.462Z,1.99
2023-01-25T17:47:36.331Z,1.88
2023-01-25T17:50:03.972Z,1.92
2023-01-25T17:52:33.047Z,1.95
2023-01-25T17:55:00.731Z,1.85
2023-01-25T17:57:31.250Z,1.80
2023-01-25T17:59:59.110Z,1.90
2023-01-25T18:02:26.703Z,1.92
2023-01-25T18:04:54.389Z,1.94
2023-01-25T18:07:22.264Z,2.00
2023-01-25T18:09:51.252Z,1.92
2023-01-25T18:12:20.508Z,1.96
2023-01-25T18:14:48.485Z,1.75
2023-01-25T18:17:17.237Z,1.90
2023-01-25T18:19:45.970Z,2.05
2023-01-25T18:22:13.934Z,1.91
2023-01-25T18:24:42.642Z,1.97
2023-01-25T18:27:19.363Z,1.99
2023-01-25T18:29:50.460Z,2.00
2023-01-25T18:32:18.031Z,1.60
2023-01-25T18:34:46.774Z,1.74
2023-01-25T18:37:20.761Z,1.93
2023-01-25T18:39:49.835Z,1.89
2023-01-25T18:42:19.311Z,1.50
2023-01-25T18:44:48.441Z,1.63
2023-01-25T18:47:18.634Z,1.78
2023-01-25T18:49:46.780Z,1.77
2023-01-25T18:52:14.394Z,1.99
2023-01-25T18:54:41.942Z,2.00
2023-01-25T18:57:10.717Z,2.02
2023-01-25T18:59:40.132Z,1.94
2023-01-25T19:02:08.372Z,1.96
2023-01-25T19:04:35.978Z,1.82
2023-01-25T19:07:04.063Z,1.86
2023-01-25T19:09:31.837Z,1.84
2023-01-25T19:11:59.862Z,1.97
2023-01-25T19:14:27.692Z,1.69
2023-01-25T19:16:56.812Z,1.85
2023-01-25T19:19:24.637Z,1.89
2023-01-25T19:21:52.223Z,1.80
2023-01-25T19:24:20.854Z,1.50
2023-01-25T19:26:48.601Z,1.67
2023-01-25T19:29:16.459Z,1.48
2023-01-25T19:31:44.092Z,1.42
2023-01-25T19:34:13.021Z,1.35
2023-01-25T19:36:45.678Z,1.68
2023-01-25T19:39:13.303Z,1.72
2023-01-25T19:41:41.081Z,1.79
2023-01-25T19:44:11.620Z,1.89
2023-01-25T19:46:39.533Z,1.99
2023-01-25T19:49:08.919Z,1.96
2023-01-25T19:51:39.704Z,2.07
2023-01-25T19:54:08.868Z,1.72
2023-01-25T19:56:38.885Z,1.71
2023-01-25T19:59:08.453Z,1.47
2023-01-25T20:01:36.572Z,1.61
2023-01-25T20:04:06.266Z,1.69
2023-01-25T20:06:34.125Z,1.82
2023-01-25T20:09:05.651Z,1.85
2023-01-25T20:11:34.635Z,1.79
2023-01-25T20:14:04.140Z,1.85
2023-01-25T20:16:32.292Z,2.09
2023-01-25T20:19:00.755Z,2.03
2023-01-25T20:21:33.808Z,2.02
2023-01-25T20:24:05.640Z,1.87
2023-01-25T20:26:36.545Z,1.82
2023-01-25T20:29:04.923Z,1.52
2023-01-25T20:31:34.443Z,1.65
2023-01-25T20:34:03.616Z,1.86
2023-01-25T20:36:32.747Z,1.41
2023-01-25T20:39:00.396Z,1.49
2023-01-25T20:41:29.561Z,1.75
2023-01-25T20:44:00.762Z,1.77
2023-01-25T20:46:29.408Z,1.57
2023-01-25T20:48:57.198Z,1.45
2023-01-25T20:51:24.789Z,1.49
2023-01-25T20:53:54.469Z,1.16
2023-01-25T20:56:22.713Z,1.12
2023-01-25T20:58:51.847Z,1.43
2023-01-25T21:01:20.958Z,1.47
2023-01-25T21:03:49.329Z,1.42
2023-01-25T21:06:17.394Z,1.28
2023-01-25T21:08:45.392Z,1.29
2023-01-25T21:11:13.419Z,1.45
2023-01-25T21:13:41.241Z,1.36
2023-01-25T21:16:13.105Z,1.17
2023-01-25T21:18:42.212Z,1.41
2023-01-25T21:21:12.258Z,1.61
2023-01-25T21:23:41.829Z,1.67
2023-01-25T21:26:11.928Z,1.77
2023-01-25T21:28:39.645Z,1.70
2023-01-25T21:31:13.464Z,1.31
2023-01-25T21:33:41.611Z,1.32
2023-01-25T21:36:11.498Z,1.30
2023-01-25T21:38:39.845Z,1.46
2023-01-25T21:41:12.103Z,1.38
2023-01-25T21:43:53.635Z,1.34
2023-01-25T21:46:26.328Z,1.33
2023-01-25T21:49:11.982Z,1.35
2023-01-25T21:51:46.880Z,1.34
2023-01-25T21:54:15.487Z,1.31
2023-01-25T21:56:43.173Z,1.25
2023-01-25T21:59:10.758Z,1.12
2023-01-25T22:01:40.519Z,1.13
2023-01-25T22:04:08.075Z,1.30
2023-01-25T22:06:35.740Z,1.35
2023-01-25T22:09:04.244Z,1.42
2023-01-25T22:11:32.281Z,1.26
2023-01-25T22:14:01.049Z,1.37
2023-01-25T22:16:30.279Z,1.38
2023-01-25T22:19:00.084Z,1.40
2023-01-25T22:21:30.725Z,1.53
2023-01-25T22:23:58.935Z,1.45
2023-01-25T22:26:27.905Z,1.18
2023-01-25T22:28:56.871Z,1.38
2023-01-25T22:31:25.822Z,1.53
2023-01-25T22:33:55.408Z,1.53
2023-01-25T22:36:26.091Z,1.47
2023-01-25T22:38:53.740Z,1.58
2023-01-25T22:41:22.762Z,1.25
2023-01-25T22:43:50.526Z,1.18
2023-01-25T22:46:19.806Z,1.03
2023-01-25T22:48:47.628Z,0.89
2023-01-25T22:51:17.252Z,0.86
2023-01-25T22:53:46.322Z,0.80
2023-01-25T22:56:15.291Z,0.86
2023-01-25T22:58:44.599Z,0.86
2023-01-25T23:01:13.771Z,0.97
2023-01-25T23:03:41.580Z,0.95
2023-01-25T23:06:11.600Z,0.83
2023-01-25T23:08:39.584Z,1.03
2023-01-25T23:11:10.008Z,1.16
2023-01-25T23:13:37.652Z,1.03
2023-01-25T23:16:06.537Z,1.20
2023-01-25T23:18:51.801Z,1.27
2023-01-25T23:21:20.958Z,1.38
2023-01-25T23:23:48.734Z,1.42
2023-01-25T23:26:17.733Z,1.34
2023-01-25T23:28:50.629Z,1.39
2023-01-25T23:31:18.587Z,1.38
2023-01-25T23:33:46.640Z,1.36
2023-01-25T23:36:15.862Z,1.45
2023-01-25T23:38:44.225Z,1.27
2023-01-25T23:41:11.724Z,1.22
2023-01-25T23:43:40.930Z,1.39
2023-01-25T23:46:08.859Z,1.45
2023-01-25T23:48:36.822Z,1.46
2023-01-25T23:51:04.546Z,1.40
2023-01-25T23:53:32.391Z,1.45
2023-01-25T23:56:02.015Z,1.35
2023-01-25T23:58:30.152Z,1.33
